Latest Weather Observations for Moomba Airport

IDS60801

Issued at 10:31 pm CDT Sunday 21 December 2014 (issued every 30 minutes, with the page automatically refreshed every 10 minutes)

About weather observations | Map of weather stations | Latest weather observations for SA | Other Formats
Station Details ID: 017123 Name: MOOMBA AIRPORT Lat: -28.10 Lon: 140.20 Height: 37.8 m
Data from the previous 72 hours. | See also: Recent months at Moomba Airport
Date/Time
CDT
Temp
°C
App
Temp
°C
Dew
Point
Rel
Hum
%
Delta-T
°C
Wind Press
QNH
hPa
Press
MSL
hPa
Rain
since 9 am
mm
Dir
 
Spd
km/h
Gust
km/h
Spd
kts
Gust
kts
21/10:30pm 32.8 28.8 -5.7 8 17.1 SSE 7 11 4 6 1007.5 1007.2 0.0
21/10:00pm 33.9 28.7 -6.7 7 17.9 S 13 15 7 8 1007.3 1007.0 0.0
21/09:30pm 33.5 29.2 -5.2 8 17.4 S 9 13 5 7 1007.4 1007.1 0.0
21/09:00pm 34.8 30.4 -6.0 7 18.3 S 9 13 5 7 1007.4 1007.1 0.0
21/08:30pm 35.8 31.8 -5.3 7 18.8 S 7 11 4 6 1007.3 1007.0 0.0
21/08:00pm 36.5 33.5 -4.8 7 19.1 SSW 2 7 1 4 1007.2 1006.9 0.0
21/07:30pm 37.3 33.4 -6.3 6 19.9 E 6 7 3 4 1007.0 1006.7 0.0
21/07:00pm 38.6 33.9 -5.3 6 20.4 ESE 11 20 6 11 1006.8 1006.5 0.0
21/06:30pm 38.9 34.3 -7.5 5 21.0 SW 9 19 5 10 1006.7 1006.4 0.0
21/06:00pm 39.2 34.7 -7.3 5 21.1 SSW 9 15 5 8 1006.7 1006.4 0.0
21/05:30pm 39.3 34.8 -7.2 5 21.2 SSW 9 17 5 9 1006.7 1006.4 0.0
21/05:00pm 38.8 34.1 -5.2 6 20.6 S 11 19 6 10 1007.0 1006.7 0.0
21/04:30pm 39.4 34.0 -4.8 6 20.9 SSW 15 26 8 14 1007.3 1007.0 0.0
21/04:00pm 39.0 33.9 -5.1 6 20.7 SE 13 20 7 11 1007.5 1007.2 0.0
21/03:30pm 38.8 34.5 -5.2 6 20.6 ESE 9 19 5 10 1007.9 1007.6 0.0
21/03:00pm 38.9 33.8 -5.1 6 20.6 SSW 13 22 7 12 1008.3 1008.0 0.0
21/02:30pm 38.6 33.5 -5.3 6 20.5 E 13 17 7 9 1008.6 1008.3 0.0
21/02:00pm 38.0 33.8 -3.7 7 19.8 ESE 9 17 5 9 1009.1 1008.8 0.0
21/01:30pm 38.1 33.9 -3.7 7 19.9 ESE 9 17 5 9 1009.7 1009.5 0.0
21/01:00pm 37.3 32.7 -4.2 7 19.5 NNW 11 17 6 9 1010.1 1009.9 0.0
21/12:30pm 37.7 32.7 -3.9 7 19.7 NNW 13 26 7 14 1010.5 1010.3 0.0
21/12:00pm 38.0 33.3 -1.9 8 19.5 SSE 13 26 7 14 1010.7 1010.5 0.0
21/11:30am 36.5 31.6 -3.0 8 18.8 ENE 13 24 7 13 1011.2 1011.0 0.0
21/11:00am 36.7 31.1 -2.9 8 18.9 E 17 28 9 15 1011.4 1011.2 0.0
21/10:30am 35.5 29.2 -3.8 8 18.3 ENE 20 30 11 16 1011.5 1011.3 0.0
21/10:00am 34.6 27.7 -2.9 9 17.6 ENE 24 30 13 16 1011.6 1011.4 0.0
21/09:30am 33.9 26.9 -3.4 9 17.3 E 24 30 13 16 1011.7 1011.5 0.0
21/09:00am 32.1 25.1 -3.3 10 16.3 E 24 28 13 15 1011.7 1011.5 0.0
21/08:30am 30.0 23.9 -2.5 12 14.9 E 20 26 11 14 1011.7 1011.5 0.0
21/08:00am 27.8 22.2 -3.1 13 13.8 E 17 24 9 13 1011.6 1011.4 0.0
21/07:30am 25.0 20.2 -2.5 16 12.1 E 13 17 7 9 1011.4 1011.2 0.0
21/07:00am 23.3 18.5 -2.3 18 11.1 ESE 13 15 7 8 1011.1 1010.9 0.0
21/06:30am 20.6 16.0 -3.8 19 10.1 E 11 13 6 7 1010.6 1010.4 0.0
21/06:00am 20.3 15.7 -4.0 19 10.0 E 11 13 6 7 1010.3 1010.1 0.0
21/05:30am 22.0 17.1 -3.4 18 10.7 ESE 13 15 7 8 1010.0 1009.8 0.0
21/05:00am 22.9 18.0 -3.4 17 11.2 ESE 13 15 7 8 1009.9 1009.7 0.0
21/04:30am 23.4 19.0 -2.2 18 11.2 ESE 11 15 6 8 1009.7 1009.5 0.0
21/04:00am 23.5 19.0 -2.9 17 11.4 ESE 11 15 6 8 1009.6 1009.4 0.0
21/03:30am 24.1 19.6 -3.3 16 11.8 ESE 11 15 6 8 1009.7 1009.5 0.0
21/03:00am 25.8 20.6 -2.8 15 12.6 SE 15 19 8 10 1009.6 1009.4 0.0
21/02:30am 25.9 20.7 -2.7 15 12.6 SE 15 19 8 10 1009.6 1009.4 0.0
21/02:00am 26.7 21.5 -3.0 14 13.1 SE 15 17 8 9 1010.0 1009.8 0.0
21/01:30am 27.4 22.1 -3.4 13 13.6 SE 15 19 8 10 1010.3 1010.1 0.0
21/01:00am 27.8 22.9 -3.1 13 13.8 SE 13 17 7 9 1010.5 1010.3 0.0
21/12:30am 28.5 23.2 -3.6 12 14.3 SE 15 17 8 9 1010.9 1010.7 0.0
21/12:00am 29.7 24.0 -3.9 11 15.0 SE 17 20 9 11 1011.1 1010.9 0.0
 
Date/Time
CDT
Temp
°C
App
Temp
°C
Dew
Point
Rel
Hum
%
Delta-T
°C
Wind Press
QNH
hPa
Press
MSL
hPa
Rain
since 9 am
mm
Dir
 
Spd
km/h
Gust
km/h
Spd
kts
Gust
kts
20/11:30pm 30.3 25.0 -3.4 11 15.2 SE 15 20 8 11 1011.2 1011.0 0.0
20/11:00pm 31.0 25.6 -4.1 10 15.7 SE 15 19 8 10 1011.4 1011.2 0.0
20/10:30pm 31.5 26.6 -3.8 10 16.0 SE 13 17 7 9 1011.2 1011.0 0.0
20/10:00pm 31.7 26.8 -3.6 10 16.1 SSE 13 15 7 8 1011.2 1011.0 0.0
20/09:30pm 31.9 27.4 -3.5 10 16.2 SE 11 13 6 7 1010.9 1010.7 0.0
20/09:00pm 32.5 27.3 -3.0 10 16.4 SSE 15 19 8 10 1010.8 1010.6 0.0
20/08:30pm 33.1 28.1 -4.0 9 17.0 S 13 17 7 9 1010.7 1010.5 0.0
20/08:00pm 33.6 28.3 -3.6 9 17.2 S 15 20 8 11 1010.5 1010.3 0.0
20/07:30pm 34.3 28.7 -3.1 9 17.5 S 17 24 9 13 1010.3 1010.1 0.0
20/07:00pm 35.1 30.3 -2.5 9 17.9 SSE 13 17 7 9 1010.1 1009.9 0.0
20/06:30pm 35.7 31.2 -3.6 8 18.4 SSW 11 17 6 9 1009.9 1009.7 0.0
20/06:00pm 35.6 30.7 -3.7 8 18.4 S 13 20 7 11 1009.6 1009.4 0.0
20/05:30pm 35.6 31.0 -3.7 8 18.4 S 11 22 6 12 1009.7 1009.5 0.0
20/05:00pm 35.5 30.6 -3.8 8 18.3 SSW 13 20 7 11 1009.8 1009.6 0.0
20/04:30pm 35.5 29.8 -3.8 8 18.4 SSW 17 24 9 13 1010.1 1009.9 0.0
20/04:00pm 35.4 30.5 -3.8 8 18.3 SW 13 20 7 11 1010.5 1010.3 0.0
20/03:30pm 35.4 30.1 -3.8 8 18.3 SSW 15 26 8 14 1011.0 1010.8 0.0
20/03:00pm 34.9 30.9 -2.6 9 17.8 E 9 19 5 10 1011.6 1011.4 0.0
20/02:30pm 34.6 30.1 -2.9 9 17.6 S 11 20 6 11 1012.0 1011.8 0.0
20/02:00pm 33.9 30.3 -3.4 9 17.3 SE 6 13 3 7 1012.5 1012.3 0.0
20/01:30pm 33.7 29.7 -2.1 10 17.0 E 9 19 5 10 1013.0 1012.8 0.0
20/01:00pm 34.2 28.8 -1.7 10 17.2 E 17 22 9 12 1013.5 1013.3 0.0
20/12:30pm 32.7 27.5 -2.9 10 16.5 ESE 15 24 8 13 1013.9 1013.7 0.0
20/12:00pm 32.4 27.2 -3.1 10 16.4 SE 15 24 8 13 1014.5 1014.3 0.0
20/11:30am 31.9 26.4 -2.2 11 15.9 ESE 17 22 9 12 1014.8 1014.6 0.0
20/11:00am 31.7 26.2 -2.3 11 15.8 ESE 17 24 9 13 1015.2 1015.0 0.0
20/10:30am 30.2 24.0 -3.5 11 15.2 ESE 20 28 11 15 1015.4 1015.2 0.0
20/10:00am 30.1 23.6 -2.4 12 14.9 E 22 32 12 17 1015.6 1015.4 0.0
20/09:30am 29.0 21.4 -2.2 13 14.2 ESE 28 35 15 19 1015.6 1015.4 0.0
20/09:00am 27.7 20.2 -1.3 15 13.3 E 28 35 15 19 1015.7 1015.5 0.0
20/08:30am 26.3 18.5 -0.7 17 12.4 ESE 30 39 16 21 1015.5 1015.3 0.0
20/08:00am 25.0 17.9 -0.9 18 11.7 ESE 26 35 14 19 1015.3 1015.1 0.0
20/07:30am 23.2 16.4 -1.7 19 10.9 SE 24 30 13 16 1015.1 1014.9 0.0
20/07:00am 22.1 16.1 -1.9 20 10.4 SE 20 24 11 13 1014.7 1014.5 0.0
20/06:30am 21.6 16.2 -1.6 21 10.1 SE 17 22 9 12 1014.5 1014.3 0.0
20/06:00am 22.0 16.0 -1.3 21 10.2 SE 20 28 11 15 1014.2 1014.0 0.0
20/05:30am 22.3 16.4 -1.1 21 10.3 SE 20 26 11 14 1013.9 1013.7 0.0
20/05:00am 22.8 16.8 -1.3 20 10.6 SE 20 28 11 15 1013.5 1013.3 0.0
20/04:30am 23.3 17.4 -0.9 20 10.8 SE 20 28 11 15 1013.6 1013.4 0.0
20/04:00am 23.7 17.8 -0.6 20 11.0 SE 20 30 11 16 1013.5 1013.3 0.0
20/03:30am 25.3 17.9 -0.7 18 11.8 SE 28 35 15 19 1013.4 1013.2 0.0
20/03:00am 25.8 18.5 -0.3 18 12.0 SE 28 35 15 19 1013.3 1013.1 0.0
20/02:30am 26.0 19.2 0.6 19 11.9 SE 26 39 14 21 1013.4 1013.2 0.0
20/02:00am 26.4 19.2 0.9 19 12.1 SE 28 37 15 20 1013.6 1013.4 0.0
20/01:30am 26.8 20.8 1.3 19 12.2 SSE 22 32 12 17 1013.9 1013.7 0.0
20/01:00am 27.3 21.9 2.4 20 12.2 SE 20 30 11 16 1014.1 1013.9 0.0
20/12:30am 27.5 21.8 2.6 20 12.2 SE 22 28 12 15 1014.3 1014.1 0.0
20/12:00am 27.5 22.1 2.6 20 12.2 SE 20 28 11 15 1014.4 1014.2 0.0
 
Date/Time
CDT
Temp
°C
App
Temp
°C
Dew
Point
Rel
Hum
%
Delta-T
°C
Wind Press
QNH
hPa
Press
MSL
hPa
Rain
since 9 am
mm
Dir
 
Spd
km/h
Gust
km/h
Spd
kts
Gust
kts
19/11:30pm 28.2 22.4 2.4 19 12.7 SE 22 30 12 16 1014.4 1014.2 0.0
19/11:00pm 28.6 23.2 2.7 19 12.9 SE 20 30 11 16 1014.5 1014.3 0.0
19/10:30pm 29.4 23.8 3.4 19 13.1 SE 22 28 12 15 1014.3 1014.1 0.0
19/10:00pm 29.2 24.5 3.2 19 13.1 SE 17 20 9 11 1014.2 1014.0 0.0
19/09:30pm 30.0 24.7 3.1 18 13.6 SE 20 28 11 15 1014.0 1013.8 0.0
19/09:00pm 30.7 26.0 2.9 17 14.0 SE 17 24 9 13 1013.8 1013.6 0.0
19/08:30pm 31.4 25.7 2.6 16 14.5 SSE 22 30 12 16 1013.7 1013.5 0.0
19/08:00pm 32.0 27.6 4.7 18 14.3 S 17 24 9 13 1013.6 1013.4 0.0
19/07:30pm 32.9 28.1 4.6 17 14.9 S 19 32 10 17 1013.4 1013.2 0.0
19/07:00pm 33.5 27.5 5.1 17 15.1 S 26 33 14 18 1013.0 1012.8 0.0
19/06:30pm 34.0 27.9 4.6 16 15.6 SSW 26 39 14 21 1012.7 1012.5 0.0
19/06:00pm 34.8 28.6 4.4 15 16.1 SW 26 39 14 21 1012.5 1012.3 0.0
19/05:30pm 35.2 29.8 4.7 15 16.3 SSW 22 35 12 19 1012.3 1012.1 0.0
19/05:00pm 35.2 30.0 3.7 14 16.5 SW 20 32 11 17 1012.3 1012.1 0.0
19/04:30pm 35.7 30.2 4.1 14 16.8 SSW 22 39 12 21 1012.5 1012.3 0.0
19/04:00pm 35.8 30.7 4.2 14 16.8 SW 20 33 11 18 1012.7 1012.5 0.0
19/03:30pm 35.6 31.1 4.0 14 16.7 SSW 17 28 9 15 1012.9 1012.7 0.0
19/03:00pm 35.5 30.2 2.9 13 16.9 SW 20 30 11 16 1013.2 1013.0 0.0
19/02:30pm 34.7 30.8 3.3 14 16.3 S 13 24 7 13 1013.5 1013.3 0.0
19/02:00pm 34.9 31.0 3.5 14 16.4 S 13 24 7 13 1013.9 1013.7 0.0
19/01:30pm 35.3 30.7 3.8 14 16.6 SSE 17 28 9 15 1014.3 1014.1 0.0
19/01:00pm 35.1 30.9 3.6 14 16.5 S 15 20 8 11 1014.6 1014.4 0.0
19/12:30pm 34.2 30.2 2.9 14 16.1 SE 13 22 7 12 1015.0 1014.8 0.0
19/12:00pm 33.4 29.1 3.3 15 15.5 SE 15 20 8 11 1015.2 1015.0 0.0
19/11:30am 32.7 28.1 3.6 16 15.0 SE 17 24 9 13 1015.3 1015.1 0.0
19/11:00am 31.3 26.5 2.5 16 14.5 SE 17 24 9 13 1015.5 1015.3 0.0
19/10:30am 31.2 25.6 3.3 17 14.2 SE 22 30 12 16 1015.4 1015.2 0.0
19/10:00am 30.1 24.8 3.2 18 13.6 SE 20 28 11 15 1015.5 1015.3 0.0
19/09:30am 29.0 22.6 3.1 19 13.0 SE 26 33 14 18 1015.6 1015.4 0.0
19/09:00am 28.3 21.5 3.2 20 12.5 SE 28 33 15 18 1015.4 1015.2 0.0
19/08:30am 27.3 21.4 3.7 22 11.8 SE 24 35 13 19 1015.1 1014.9 0.0
19/08:00am 26.2 19.5 3.4 23 11.3 SSE 28 35 15 19 1014.9 1014.7 0.0
19/07:30am 25.2 20.0 3.8 25 10.6 SSE 20 28 11 15 1014.6 1014.4 0.0
19/07:00am 24.4 18.8 3.7 26 10.2 SSE 22 28 12 15 1014.0 1013.8 0.0
19/06:30am 24.9 18.3 4.1 26 10.3 SSE 28 39 15 21 1013.4 1013.2 0.0
19/06:00am 23.8 18.6 3.7 27 9.8 SSE 20 26 11 14 1013.2 1013.0 0.0
19/05:30am 24.3 19.8 4.1 27 10.0 S 17 20 9 11 1012.9 1012.7 0.0
19/05:00am 25.9 20.9 3.8 24 11.0 SSE 19 28 10 15 1012.4 1012.2 0.0
19/04:30am 26.2 20.7 4.1 24 11.1 SSE 22 32 12 17 1012.2 1012.0 0.0
19/04:00am 26.7 21.2 3.9 23 11.4 SSE 22 32 12 17 1011.8 1011.6 0.0
19/03:30am 26.8 21.3 4.0 23 11.5 SSE 22 32 12 17 1011.6 1011.4 0.0
19/03:00am 27.1 21.9 3.6 22 11.7 SSE 20 28 11 15 1011.3 1011.1 0.0
19/02:30am 27.5 22.2 3.2 21 12.1 S 20 28 11 15 1011.2 1011.0 0.0
19/02:00am 26.8 21.5 2.0 20 12.0 S 19 24 10 13 1011.2 1011.0 0.0
19/01:30am 26.8 22.3 2.0 20 12.0 SSW 15 19 8 10 1011.2 1011.0 0.0
19/01:00am 26.8 22.3 -0.3 17 12.6 WSW 13 22 7 12 1011.2 1011.0 0.0
19/12:30am 26.0 21.8 -0.9 17 12.3 NNW 11 13 6 7 1010.9 1010.7 0.0
19/12:00am 26.0 21.8 -0.9 17 12.3 NNW 11 13 6 7 1011.0 1010.8 0.0
 
Date/Time
CDT
Temp
°C
App
Temp
°C
Dew
Point
Rel
Hum
%
Delta-T
°C
Wind Press
QNH
hPa
Press
MSL
hPa
Rain
since 9 am
mm
Dir
 
Spd
km/h
Gust
km/h
Spd
kts
Gust
kts
18/11:30pm 26.6 21.7 -0.4 17 12.5 NNW 15 17 8 9 1010.8 1010.6 0.0
18/11:00pm 27.2 22.3 -0.8 16 12.9 NNW 15 17 8 9 1010.8 1010.6 0.0

Other Formats:

Comma delimited format used in spreadsheet applications
http://www.bom.gov.au/fwo/IDS60801/IDS60801.95481.axf

JavaScript Object Notation format (JSON) in row-major order
http://www.bom.gov.au/fwo/IDS60801/IDS60801.95481.json